Terminal Aerodrome Forecast
Issued by NWS Cleveland, OH

Home | Current Version | Previous Version | Graphics & Text | Print | Product List | Glossary On
Versions: 1 2 3 4 5 6 7 8 9 10 11 12 13 14 15 16
580
FTUS41 KCLE 202323
TAFMFD
TAF
KMFD 202323Z 2100/2124 VRB02KT P6SM SCT250
     FM210800 00000KT 5SM BR SCT250
      TEMPO 2109/2113 1SM BR BKN015
     FM211300 VRB03KT 3SM BR SCT250
     FM211500 12004KT P6SM SCT250=

USA.gov is the U.S. government's official web portal to all federal, state and local government web resources and services.